Terminal Aerodrome Forecast
Issued by NWS

Home | Current Version | Previous Version | Text Only | Print | Product List | Glossary On
Versions: 1 2 3 4 5 6 7 8 9 10 11 12 13 14
000
FTUS46 KMTR 202323
TAFSNS
TAF
KSNS 202323Z 2100/2124 28012KT P6SM SKC
     FM210400 28010KT P6SM SCT010
     FM210700 28008KT P6SM BKN010
     FM211000 28006KT P6SM OVC009
     FM211700 28005KT P6SM SCT010
     FM211900 28012KT P6SM SKC=

USA.gov is the U.S. government's official web portal to all federal, state and local government web resources and services.